Date,TemperatureHighF,TemperatureAvgF,TemperatureLowF,DewpointHighF,DewpointAvgF,DewpointLowF,HumidityHigh,HumidityAvg,HumidityLow,PressureMaxIn,PressureMinIn,WindSpeedMaxMPH,WindSpeedAvgMPH,GustSpeedMaxMPH,PrecipitationSumIn
2013-7-11,81.2,75.2,59.6,59.4,57.2,54.5,94,56,41,30.05,30.02,3,1,4,0.00
2013-7-12,84.1,73.1,63.8,61.6,56.3,50.2,85,59,34,30.14,30.05,4,1,7,0.00
2013-7-13,83.9,70.9,63.1,63.9,61.5,59.8,90,74,49,30.12,30.06,2,1,4,0.00
2013-7-14,87.0,83.7,79.9,72.7,71.1,69.2,71,66,61,30.13,30.12,4,2,8,0.00
2013-7-15,88.8,84.6,77.5,76.9,75.0,73.6,88,73,66,30.23,30.16,3,1,4,0.10
2013-7-16,91.0,84.7,77.9,76.9,75.0,71.6,81,73,59,30.28,30.22,3,1,4,0.00
2013-7-17,92.6,85.2,72.6,76.2,74.0,70.8,94,70,52,30.29,30.15,6,1,6,0.00
2013-7-18,94.4,89.7,77.9,78.7,75.6,73.7,88,64,53,30.12,29.99,8,2,8,0.00
2013-7-19,93.3,88.4,81.6,76.6,74.5,70.4,77,64,49,29.90,29.81,16,4,16,0.00
2013-7-20,85.8,80.8,74.8,70.3,67.6,62.4,81,66,46,29.85,29.79,9,3,9,0.06
2013-7-21,83.4,80.0,74.9,72.9,72.1,71.1,93,78,67,29.88,29.84,2,1,4,0.00
2013-7-22,85.6,79.5,73.3,72.2,70.5,68.3,92,75,58,29.81,29.77,5,2,7,0.00
2013-7-23,78.5,74.6,71.5,70.7,67.9,66.5,85,80,71,29.81,29.77,6,6,7,0.02
2013-7-24,75.1,67.1,56.2,59.8,55.9,52.2,93,69,49,30.04,29.94,8,3,14,0.00
2013-7-25,81.0,66.8,48.9,61.6,55.9,47.5,97,71,47,30.11,30.02,3,1,10,0.00
2013-7-26,73.7,67.0,60.7,68.2,62.3,56.7,92,85,76,30.03,29.88,5,1,13,0.01
2013-7-27,67.0,59.8,53.6,56.8,52.8,47.2,94,78,57,29.94,29.88,10,4,19,0.00
2013-7-28,70.9,60.5,50.2,55.3,50.8,47.4,95,72,48,30.03,29.90,12,4,20,0.00
2013-7-29,78.5,63.2,47.7,60.8,54.1,46.9,98,76,47,30.15,30.04,6,1,12,0.00
2013-7-30,67.7,62.6,55.8,65.1,60.0,54.1,95,91,84,30.16,30.06,2,0,8,0.20
2013-7-31,74.6,70.1,64.6,68.5,66.4,63.6,98,88,78,30.00,29.94,5,2,8,0.08